SVMC/MAR METAR and TAF weather

Enter ICAO airport designator
Station Type Date Time Source
SVMC METAR 2022/12/08 12:03 UTC NOAA

SVMC 081203Z AUTO 04005KT NCD 22/20 Q1012


Station Type Date Time Source
SVMC Decoded METAR 2022/12/08 12:03 UTC NOAA

Maracaibo-La Chinita, Venezuela (SVMC) 10-34N 071-44W 65M
Dec 08, 2022 - 07:03 AM EST / 2022.12.08 1203 UTC
Wind: from the NE (040 degrees) at 6 MPH (5 KT):0
Temperature: 71 F (22 C)
Dew Point: 68 F (20 C)
Relative Humidity: 88%
Pressure (altimeter): 29.88 in. Hg (1012 hPa)
ob: SVMC 081203Z AUTO 04005KT NCD 22/20 Q1012
cycle: 12

Station Type Date Time Source
SVMC TAF 2022/12/08 12:03 UTC NOAA

TAF SVMC 081000Z 0812/0912 08002KT 9999 BKN013 TX33/0819Z TN22/0908Z
TEMPO 0818/0822 16004KT 9000 DZ SCT013 BKN080

Example: see airport list